Nearby METAR Reports

 

KDLZ - Delaware, Ohio, USA
Distance from station: SW 3mi, 5km
Updated: Wed, 27-Oct-2021 11:55am EDT
Overcast
Overcast
 Wind from calm
Wind: Calm
Temperature: 46°F , 8°C
Dew Point: 41°F , 5°C
Humidity: 82%
Barometer: 30.06 inHg , 1017.9 hPa
Clouds: Overcast
Visibility: 10 miles , 16 km
Cloud details: Overcast 1500 ft
2021/10/27 15:55 KDLZ 271555Z AUTO 00000KT 10SM OVC015 08/05 A3006 RMK AO2 P0001
KOSU - Columbus/St Univ, Ohio, USA
Distance from station: S 16mi, 25km
Updated: Wed, 27-Oct-2021 11:53am EDT
Overcast
Overcast
 Wind from varies
Wind: varies 3 mph , 6 km/h
Temperature: 52°F , 11°C
Dew Point: 43°F , 6°C
Humidity: 72%
Barometer: 30.05 inHg , 1017.6 hPa
Clouds: Overcast
Visibility: 10 miles , 16 km
Cloud details: Overcast 2100 ft
2021/10/27 15:53 KOSU 271553Z VRB03KT 10SM OVC021 11/06 A3005 RMK AO2 SLP181 T01060061
 
KMRT - Marysville, Ohio, USA
Distance from station: WSW 16mi, 26km
Updated: Wed, 27-Oct-2021 11:55am EDT
Overcast
Overcast
 Wind from NW
Wind: NW 5 mph , 7 km/h
Temperature: 48°F , 9°C
Wind Chill: 46°F , 8°C
Dew Point: 41°F , 5°C
Humidity: 76%
Barometer: 30.07 inHg , 1018.3 hPa
Clouds: Overcast
Visibility: 10 miles , 16 km
Cloud details: Mostly cloudy 1600 ft
Overcast 2100 ft
2021/10/27 15:55 KMRT 271555Z AUTO 32004KT 10SM BKN016 OVC021 09/05 A3007 RMK AO2 T00850051 P0004
KMNN - Marion, Ohio, USA
Distance from station: N 21mi, 34km
Updated: Wed, 27-Oct-2021 11:53am EDT
Mist, Overcast
Mist, Overcast
 Wind from WNW
Wind: WNW 7 mph , 11 km/h
Temperature: 46°F , 8°C
Wind Chill: 42°F , 6°C
Dew Point: 43°F , 6°C
Humidity: 87%
Barometer: 30.05 inHg , 1017.6 hPa
Summary: Mist
Clouds: Overcast
Visibility: 6 miles , 10 km
Cloud details: Overcast 1100 ft
2021/10/27 15:53 KMNN 271553Z AUTO 29006KT 6SM BR OVC011 08/06 A3005 RMK AO2 CIG 009V013 SLP183 T00830061 $
 
KCMH - Columbus, Ohio, USA
Distance from station: SSE 24mi, 38km
Updated: Wed, 27-Oct-2021 11:51am EDT
Overcast
Overcast
 Wind from calm
Wind: Calm
Temperature: 48°F , 9°C
Dew Point: 43°F , 6°C
Humidity: 82%
Barometer: 30.04 inHg , 1017.3 hPa
Clouds: Overcast
Visibility: 10 miles , 16 km
Cloud details: Overcast 1600 ft
2021/10/27 15:51 KCMH 271551Z 00000KT 10SM OVC016 09/06 A3004 RMK AO2 SLP177 T00940056
K4I3 - Mt Vernon/Knox, Ohio, USA
Distance from station: E 29mi, 46km
Updated: Wed, 27-Oct-2021 11:55am EDT
Overcast
Overcast
 Wind from NE
Wind: NE 5 mph , 7 km/h
Temperature: 48°F , 9°C
Wind Chill: 46°F , 8°C
Dew Point: 45°F , 7°C
Humidity: 87%
Clouds: Overcast
Visibility: 10 miles , 16 km
Cloud details: Overcast 1200 ft
2021/10/27 15:55 K4I3 271555Z AUTO 04004KT 10SM OVC012 09/07 RMK AO2
 
KTZR - Columbus/Bolton, Ohio, USA
Distance from station: S 29mi, 46km
Updated: Wed, 27-Oct-2021 11:47am EDT
Overcast
Overcast
 Wind from NW
Wind: NW 3 mph , 6 km/h
Temperature: 48°F , 9°C
Dew Point: 43°F , 6°C
Humidity: 82%
Barometer: 30.06 inHg , 1017.9 hPa
Clouds: Overcast
Visibility: 10 miles , 16 km
Cloud details: Overcast 1800 ft
2021/10/27 15:47 KTZR 271547Z 32003KT 10SM OVC018 09/06 A3006
KUYF - London, Ohio, USA
Distance from station: SW 33mi, 54km
Updated: Wed, 27-Oct-2021 11:55am EDT
Overcast
Overcast
 Wind from WNW
Wind: WNW 3 mph , 6 km/h
Temperature: 46°F , 8°C
Dew Point: 41°F , 5°C
Humidity: 82%
Barometer: 30.06 inHg , 1017.9 hPa
Clouds: Overcast
Visibility: 10 miles , 16 km
Cloud details: Overcast 1500 ft
2021/10/27 15:55 KUYF 271555Z AUTO 29003KT 10SM OVC015 08/05 A3006 RMK AO2
 
KLCK - Rickenbacker Ang, Ohio, USA
Distance from station: SSE 35mi, 57km
Updated: Wed, 27-Oct-2021 11:55am EDT
Overcast
Overcast
 Wind from calm
Wind: Calm
Temperature: 48°F , 9°C
Dew Point: 41°F , 5°C
Humidity: 76%
Barometer: 30.05 inHg , 1017.6 hPa
Clouds: Overcast
Visibility: 10 miles , 16 km
Cloud details: Overcast 1800 ft
2021/10/27 15:55 KLCK 271555Z AUTO 00000KT 10SM OVC018 09/05 A3005 RMK AO2 T00900050
KVTA - Newark, Ohio, USA
Distance from station: ESE 38mi, 61km
Updated: Wed, 27-Oct-2021 11:54am EDT
Overcast
Overcast
 Wind from calm
Wind: Calm
Temperature: 52°F , 11°C
Dew Point: 43°F , 6°C
Humidity: 72%
Barometer: 30.04 inHg , 1017.3 hPa
Clouds: Overcast
Visibility: 10 miles , 16 km
Cloud details: Overcast 1400 ft
2021/10/27 15:54 KVTA 271554Z AUTO 00000KT 10SM OVC014 11/06 A3004 RMK AO2 SLP174 T01060061
 
KEDJ - Bellefontaine, Ohio, USA
Distance from station: W 39mi, 63km
Updated: Thu, 21-Oct-2021 8:35am EDT
NOT Current
Mostly cloudy
Mostly cloudy
 Wind from SW
Wind: SW 14 mph , 22 km/h
Temperature: 59°F , 15°C
Dew Point: 57°F , 14°C
Humidity: 94%
Barometer: 29.91 inHg , 1012.9 hPa
Clouds: Mostly cloudy
Visibility: 7 miles , 11 km
Cloud details: Few Clouds 1500 ft
Mostly cloudy 2400 ft
2021/10/21 12:35 KEDJ 211235Z AUTO 23012KT 7SM FEW015 BKN024 15/14 A2991 RMK AO1
KLHQ - Lancaster, Ohio, USA
Distance from station: SSE 44mi, 71km
Updated: Wed, 27-Oct-2021 11:53am EDT
Overcast
Overcast
 Wind from varies
Wind: varies 3 mph , 6 km/h
Temperature: 50°F , 10°C
Dew Point: 45°F , 7°C
Humidity: 82%
Barometer: 30.05 inHg , 1017.6 hPa
Clouds: Overcast
Visibility: 10 miles , 16 km
Cloud details: Overcast 1700 ft
2021/10/27 15:53 KLHQ 271553Z AUTO VRB03KT 10SM OVC017 10/07 A3005 RMK AO2 SLP180 T01000067
 
KMFD - Mansfield, Ohio, USA
Distance from station: NE 46mi, 73km
Updated: Wed, 27-Oct-2021 12:08pm EDT
Mist, Overcast
Mist, Overcast
 Wind from WNW
Wind: WNW 5 mph , 7 km/h
Temperature: 48°F , 9°C
Wind Chill: 46°F , 8°C
Dew Point: 46°F , 8°C
Humidity: 94%
Barometer: 30.04 inHg , 1017.3 hPa
Summary: Mist
Clouds: Overcast
Visibility: 2 miles , 3 km
Cloud details: Overcast 300 ft
2021/10/27 16:08 KMFD 271608Z 30004KT 2SM BR OVC003 09/08 A3004 RMK AO2 T00890083
KSGH - Springfield Muni, Ohio, USA
Distance from station: SW 52mi, 84km
Updated: Wed, 27-Oct-2021 11:56am EDT
Overcast
Overcast
 Wind from W
Wind: W 3 mph , 6 km/h
Temperature: 45°F , 7°C
Dew Point: 43°F , 6°C
Humidity: 93%
Barometer: 30.07 inHg , 1018.3 hPa
Clouds: Overcast
Visibility: 10 miles , 16 km
Cloud details: Overcast 1700 ft
2021/10/27 15:56 KSGH 271556Z AUTO 28003KT 10SM OVC017 07/06 A3007 RMK AO2 SLP192 T00720061 PNO $
 
KI23 - Washington Court, Ohio, USA
Distance from station: SSW 55mi, 88km
Updated: Wed, 27-Oct-2021 11:55am EDT
Overcast
Overcast
 Wind from calm
Wind: Calm
Temperature: 46°F , 8°C
Dew Point: 41°F , 5°C
Humidity: 82%
Barometer: 30.05 inHg , 1017.6 hPa
Clouds: Overcast
Visibility: 10 miles , 16 km
Cloud details: Mostly cloudy 1200 ft
Overcast 1900 ft
2021/10/27 15:55 KI23 271555Z AUTO 00000KT 10SM BKN012 OVC019 08/05 A3005 RMK AO1
KAOH - Lima, Ohio, USA
Distance from station: WNW 56mi, 91km
Updated: Wed, 27-Oct-2021 11:53am EDT
Overcast
Overcast
 Wind from N
Wind: N 3 mph , 6 km/h
Temperature: 46°F , 8°C
Dew Point: 39°F , 4°C
Humidity: 76%
Barometer: 30.07 inHg , 1018.3 hPa
Clouds: Overcast
Visibility: 10 miles , 16 km
Cloud details: Overcast 1700 ft
2021/10/27 15:53 KAOH 271553Z AUTO 36003KT 10SM OVC017 08/04 A3007 RMK AO2 SLP186 T00780044
 
KFDY - Findlay, Ohio, USA
Distance from station: NNW 58mi, 93km
Updated: Wed, 27-Oct-2021 11:53am EDT
Overcast
Overcast
 Wind from W
Wind: W 3 mph , 6 km/h
Temperature: 46°F , 8°C
Dew Point: 39°F , 4°C
Humidity: 76%
Barometer: 30.07 inHg , 1018.3 hPa
Clouds: Overcast
Visibility: 10 miles , 16 km
Cloud details: Overcast 1700 ft
2021/10/27 15:53 KFDY 271553Z AUTO 27003KT 10SM OVC017 08/04 A3007 RMK AO2 SLP181 T00780044
KFFO - Wright Paterson, Ohio, USA
Distance from station: SW 61mi, 98km
Updated: Wed, 27-Oct-2021 11:56am EDT
Overcast
Overcast
 Wind from calm
Wind: Calm
Temperature: 46°F , 8°C
Dew Point: 43°F , 6°C
Humidity: 87%
Barometer: 30.07 inHg , 1018.3 hPa
Clouds: Overcast
Visibility: 10 miles , 16 km
Cloud details: Overcast 1900 ft
2021/10/27 15:56 KFFO 271556Z 00000KT 10SM OVC019 08/06 A3007 RMK AO2A SLP190 T00780061
 
KRZT - Chillicothe, Ohio, USA
Distance from station: S 61mi, 98km
Updated: Wed, 27-Oct-2021 11:55am EDT
Overcast
Overcast
 Wind from calm
Wind: Calm
Temperature: 46°F , 8°C
Dew Point: 41°F , 5°C
Humidity: 82%
Barometer: 30.05 inHg , 1017.6 hPa
Clouds: Overcast
Visibility: 10 miles , 16 km
Cloud details: Overcast 1900 ft
2021/10/27 15:55 KRZT 271555Z AUTO 00000KT 10SM OVC019 08/05 A3005 RMK AO2 PWINO
KI19 - Dayton-Jackson, Ohio, USA
Distance from station: SW 65mi, 105km
Updated: Wed, 27-Oct-2021 11:55am EDT
Overcast
Overcast
 Wind from calm
Wind: Calm
Temperature: 46°F , 8°C
Dew Point: 43°F , 6°C
Humidity: 87%
Barometer: 30.09 inHg , 1019 hPa
Clouds: Overcast
Visibility: 10 miles , 16 km
Cloud details: Overcast 1800 ft
2021/10/27 15:55 KI19 271555Z AUTO 00000KT 10SM OVC018 08/06 A3009 RMK AO2 T00760055